createdAt,value
2022-08-25T00:03:17.632Z,18.40
2022-08-25T00:18:20.156Z,19.60
2022-08-25T00:33:21.814Z,17.60
2022-08-25T00:48:23.678Z,17.80
2022-08-25T01:03:25.242Z,17.20
2022-08-25T01:18:31.171Z,17.50
2022-08-25T01:33:31.760Z,17.70
2022-08-25T01:48:33.587Z,19.30
2022-08-25T02:03:35.758Z,20.60
2022-08-25T02:18:38.894Z,20.90
2022-08-25T02:33:39.473Z,23.80
2022-08-25T02:48:41.328Z,24.90
2022-08-25T03:03:43.592Z,38.60
2022-08-25T03:18:45.154Z,39.90
2022-08-25T03:33:45.289Z,40.90
2022-08-25T03:48:47.139Z,38.50
2022-08-25T04:03:47.758Z,33.90
2022-08-25T04:18:49.588Z,32.70
2022-08-25T04:33:50.749Z,32.10
2022-08-25T04:48:52.034Z,34.90
2022-08-25T05:03:52.954Z,35.70
2022-08-25T05:18:54.736Z,34.80
2022-08-25T05:33:55.765Z,35.90
2022-08-25T05:48:57.633Z,36.70
2022-08-25T06:03:59.535Z,33.50
2022-08-25T06:19:01.329Z,30.10
2022-08-25T06:34:02.161Z,31.40
2022-08-25T06:49:02.786Z,33.00
2022-08-25T07:04:06.597Z,34.30
2022-08-25T07:19:09.428Z,30.90
2022-08-25T07:34:09.650Z,31.10
2022-08-25T07:49:17.104Z,27.40
2022-08-25T08:04:18.432Z,27.80
2022-08-25T08:19:19.081Z,28.70
2022-08-25T08:34:24.886Z,30.40
2022-08-25T08:49:27.869Z,29.80
2022-08-25T09:04:28.474Z,27.30
2022-08-25T09:19:28.680Z,27.70
2022-08-25T09:34:32.161Z,26.50
2022-08-25T09:49:32.620Z,23.30
2022-08-25T10:04:32.682Z,21.20
2022-08-25T10:19:34.685Z,20.90
2022-08-25T10:34:36.733Z,17.40
2022-08-25T10:49:37.066Z,16.70
2022-08-25T11:04:38.761Z,16.50
2022-08-25T11:19:40.248Z,18.30
2022-08-25T11:34:43.494Z,18.00
2022-08-25T11:49:44.388Z,15.60
2022-08-25T12:04:45.658Z,13.30
2022-08-25T12:19:46.987Z,10.40
2022-08-25T12:34:50.862Z,13.30
2022-08-25T12:49:52.680Z,8.30
2022-08-25T13:04:53.677Z,8.90
2022-08-25T13:19:55.118Z,8.30
2022-08-25T13:34:55.978Z,7.90
2022-08-25T13:49:59.190Z,7.70
2022-08-25T14:05:00.757Z,7.20
2022-08-25T14:20:02.101Z,9.60
2022-08-25T14:35:10.173Z,6.60
2022-08-25T14:50:11.049Z,7.60
2022-08-25T15:05:12.411Z,7.30
2022-08-25T15:20:13.177Z,7.00
2022-08-25T15:35:15.823Z,6.30
2022-08-25T15:50:16.917Z,6.80
2022-08-25T16:05:20.447Z,5.90
2022-08-25T16:20:24.638Z,6.20
2022-08-25T16:35:25.198Z,6.30
2022-08-25T16:50:25.456Z,5.90
2022-08-25T17:05:27.351Z,6.50
2022-08-25T17:20:28.279Z,6.70
2022-08-25T17:35:29.216Z,6.70
2022-08-25T17:50:30.791Z,7.20
2022-08-25T18:05:31.390Z,7.40
2022-08-25T18:20:33.492Z,8.80
2022-08-25T18:35:34.365Z,9.50
2022-08-25T18:50:36.744Z,8.60
2022-08-25T19:05:37.959Z,8.50
2022-08-25T19:20:40.453Z,8.80
2022-08-25T19:35:41.829Z,9.90
2022-08-25T19:50:43.782Z,10.10
2022-08-25T20:05:46.091Z,11.50
2022-08-25T20:20:47.668Z,11.40
2022-08-25T20:35:50.835Z,12.60
2022-08-25T20:50:57.743Z,14.70
2022-08-25T21:05:58.298Z,12.10
2022-08-25T21:20:59.735Z,12.20
2022-08-25T21:36:01.346Z,11.60
2022-08-25T21:51:05.654Z,13.00
2022-08-25T22:06:08.035Z,13.80
2022-08-25T22:21:10.843Z,13.70
2022-08-25T22:36:13.172Z,14.90
2022-08-25T22:51:12.796Z,16.50
2022-08-25T23:06:18.650Z,17.50
2022-08-25T23:21:24.185Z,18.00
2022-08-25T23:36:26.413Z,18.60
2022-08-25T23:51:29.195Z,19.70
